Nearby METAR Reports

 

NZWN - Wellington Intl, New Zealand
Distance from station: E 68km
Updated: 16/01/2019 17:00
Partly cloudy
Partly cloudy
 Wind from S
Wind: S 26 km/h
Temperature: 18°C
Dew Point: 12°C
Humidity: 68%
Barometer: 1012 hPa
Clouds: Partly cloudy
Visibility: 10 km
Cloud details: Partly cloudy 488 m
2019/01/16 04:00 NZWN 160400Z AUTO 18014KT 9999 SCT016/// 18/12 Q1012 NOSIG
NZCH - Christchurch Int, New Zealand
Distance from station: SSW 269km
Updated: 16/01/2019 17:00
Clear
Clear
 Wind from E
Wind: E 30 km/h
Temperature: 19°C
Dew Point: 12°C
Humidity: 64%
Barometer: 1010 hPa
Clouds: Clear
Visibility: 10 km
2019/01/16 04:00 NZCH 160400Z AUTO 08016KT 9999 NCD 19/12 Q1010 NOSIG
 
NZAA - Auckland Intl Ar, New Zealand
Distance from station: N 480km
Updated: 16/01/2019 17:00
Clear
Clear
 Wind from SW
Wind: SW 31 km/h
Temperature: 22°C
Dew Point: 17°C
Humidity: 73%
Barometer: 1006 hPa
Clouds: Clear
Visibility: 10 km
2019/01/16 04:00 NZAA 160400Z AUTO 23017KT 9999 NCD 22/17 Q1006 NOSIG